createdAt,value
2018-04-28T00:00:31.327Z,1.57
2018-04-28T00:02:59.489Z,1.90
2018-04-28T00:05:26.878Z,1.97
2018-04-28T00:07:54.302Z,2.00
2018-04-28T00:10:21.653Z,1.63
2018-04-28T00:12:49.806Z,1.90
2018-04-28T00:15:17.191Z,1.70
2018-04-28T00:17:45.322Z,2.03
2018-04-28T00:20:12.714Z,2.27
2018-04-28T00:22:42.048Z,1.93
2018-04-28T00:25:10.154Z,1.63
2018-04-28T00:27:37.515Z,1.73
2018-04-28T00:30:07.702Z,2.27
2018-04-28T00:32:35.086Z,1.80
2018-04-28T00:35:03.179Z,1.77
2018-04-28T00:37:31.209Z,1.97
2018-04-28T00:40:17.174Z,1.50
2018-04-28T00:42:48.461Z,1.40
2018-04-28T00:45:19.629Z,1.90
2018-04-28T00:47:47.897Z,1.50
2018-04-28T00:50:21.154Z,1.83
2018-04-28T00:52:48.540Z,2.57
2018-04-28T00:55:31.721Z,1.50
2018-04-28T00:58:04.942Z,2.03
2018-04-28T01:00:47.324Z,2.17
2018-04-28T01:03:14.707Z,1.50
2018-04-28T01:05:48.516Z,1.50
2018-04-28T01:08:15.898Z,2.20
2018-04-28T01:10:58.141Z,1.77
2018-04-28T01:13:31.228Z,1.77
2018-04-28T01:15:58.581Z,1.80
2018-04-28T01:18:25.960Z,1.57
2018-04-28T01:20:54.166Z,2.47
2018-04-28T01:23:24.331Z,2.50
2018-04-28T01:25:51.687Z,1.77
2018-04-28T01:28:39.971Z,1.57
2018-04-28T01:31:07.981Z,1.87
2018-04-28T01:33:41.326Z,1.43
2018-04-28T01:36:11.522Z,1.80
2018-04-28T01:38:39.805Z,1.80
2018-04-28T01:41:12.169Z,2.27
2018-04-28T01:43:40.366Z,2.70
2018-04-28T01:46:07.726Z,1.50
2018-04-28T01:48:50.719Z,1.40
2018-04-28T01:51:18.098Z,1.30
2018-04-28T01:54:04.310Z,1.67
2018-04-28T01:56:35.466Z,2.00
2018-04-28T01:59:02.804Z,1.60
2018-04-28T02:01:30.977Z,1.50
2018-04-28T02:04:01.248Z,1.10
2018-04-28T02:06:43.522Z,1.93
2018-04-28T02:09:12.653Z,1.77
2018-04-28T02:11:41.712Z,1.70
2018-04-28T02:14:27.687Z,1.63
2018-04-28T02:17:09.959Z,1.43
2018-04-28T02:19:44.185Z,2.10
2018-04-28T02:22:13.365Z,1.67
2018-04-28T02:24:44.486Z,1.50
2018-04-28T02:27:14.751Z,1.97
2018-04-28T02:29:42.094Z,1.90
2018-04-28T02:32:18.302Z,2.37
2018-04-28T02:35:05.386Z,2.10
2018-04-28T02:37:36.679Z,1.93
2018-04-28T02:40:04.804Z,1.83
2018-04-28T02:42:33.879Z,2.50
2018-04-28T02:45:02.013Z,1.60
2018-04-28T02:47:30.274Z,1.90
2018-04-28T02:49:58.498Z,1.53
2018-04-28T02:52:31.662Z,1.30
2018-04-28T02:54:59.912Z,1.90
2018-04-28T02:57:45.132Z,2.30
2018-04-28T03:00:15.383Z,1.47
2018-04-28T03:02:45.533Z,1.90
2018-04-28T03:05:15.875Z,1.67
2018-04-28T03:07:58.967Z,2.37
2018-04-28T03:10:26.936Z,2.60
2018-04-28T03:12:54.063Z,2.13
2018-04-28T03:15:21.209Z,1.70
2018-04-28T03:18:04.160Z,1.90
2018-04-28T03:20:32.947Z,1.47
2018-04-28T03:23:00.075Z,1.97
2018-04-28T03:25:31.979Z,2.00
2018-04-28T03:28:00.946Z,2.20
2018-04-28T03:30:32.020Z,2.07
2018-04-28T03:33:00.961Z,1.70
2018-04-28T03:35:28.119Z,3.03
2018-04-28T03:37:55.249Z,1.90
2018-04-28T03:40:23.356Z,1.80
2018-04-28T03:42:53.342Z,1.90
2018-04-28T03:45:23.273Z,1.53
2018-04-28T03:47:56.133Z,1.43
2018-04-28T03:50:33.756Z,1.97
2018-04-28T03:53:01.718Z,2.30
2018-04-28T03:55:28.843Z,1.47
2018-04-28T03:58:02.074Z,1.30
2018-04-28T04:00:35.181Z,1.80
2018-04-28T04:03:09.162Z,2.33
2018-04-28T04:05:37.103Z,2.20
2018-04-28T04:08:10.192Z,1.97
2018-04-28T04:10:43.227Z,2.00
2018-04-28T04:13:19.072Z,1.87
2018-04-28T04:16:01.081Z,1.97
2018-04-28T04:21:26.765Z,1.80
2018-04-28T04:24:11.573Z,1.57
2018-04-28T04:26:44.630Z,1.80
2018-04-28T04:29:17.831Z,1.73
2018-04-28T04:32:03.749Z,1.87
2018-04-28T04:34:45.789Z,1.83
2018-04-28T04:37:12.909Z,1.80
2018-04-28T04:39:43.934Z,2.00
2018-04-28T04:42:11.056Z,2.23
2018-04-28T04:44:38.175Z,1.77
2018-04-28T04:47:11.280Z,2.40
2018-04-28T04:49:42.280Z,2.70
2018-04-28T04:52:12.410Z,2.03
2018-04-28T04:54:43.405Z,1.83
2018-04-28T04:57:16.594Z,1.80
2018-04-28T04:59:44.683Z,2.10
2018-04-28T05:02:18.508Z,2.10
2018-04-28T05:04:50.341Z,2.10
2018-04-28T05:07:33.146Z,2.70
2018-04-28T05:10:00.265Z,2.00
2018-04-28T05:12:29.120Z,2.23
2018-04-28T05:15:01.974Z,2.10
2018-04-28T05:17:35.075Z,2.37
2018-04-28T05:20:08.141Z,1.93
2018-04-28T05:22:41.283Z,2.17
2018-04-28T05:25:11.129Z,2.80
2018-04-28T05:27:44.240Z,2.03
2018-04-28T05:30:17.209Z,2.43
2018-04-28T05:32:47.289Z,2.50
2018-04-28T05:35:20.313Z,2.87
2018-04-28T05:37:53.442Z,2.30
2018-04-28T05:40:35.452Z,2.60
2018-04-28T05:43:16.398Z,2.00
2018-04-28T05:45:49.302Z,2.20
2018-04-28T05:48:17.404Z,2.50
2018-04-28T05:50:46.435Z,2.70
2018-04-28T05:53:18.337Z,1.90
2018-04-28T05:55:51.417Z,2.37
2018-04-28T05:58:34.398Z,2.20
2018-04-28T06:01:18.159Z,2.17
2018-04-28T06:03:46.146Z,2.43
2018-04-28T06:06:19.230Z,2.30
2018-04-28T06:08:52.341Z,1.70
2018-04-28T06:11:25.261Z,2.53
2018-04-28T06:13:58.289Z,2.40
2018-04-28T06:16:31.384Z,10.70
2018-04-28T06:19:14.472Z,2.90
2018-04-28T06:21:41.597Z,2.53
2018-04-28T06:24:08.726Z,2.80
2018-04-28T06:26:35.872Z,2.97
2018-04-28T06:29:02.993Z,2.93
2018-04-28T06:31:30.151Z,2.80
2018-04-28T06:33:57.274Z,3.40
2018-04-28T06:36:24.421Z,2.70
2018-04-28T06:38:51.541Z,2.60
2018-04-28T06:41:18.797Z,3.10
2018-04-28T06:43:45.848Z,2.83
2018-04-28T06:46:13.006Z,2.93
2018-04-28T06:48:40.297Z,3.10
2018-04-28T06:51:08.171Z,3.12
2018-04-28T06:53:35.388Z,2.33
2018-04-28T06:56:02.545Z,2.23
2018-04-28T06:58:29.688Z,2.03
2018-04-28T07:00:56.846Z,2.40
2018-04-28T07:03:24.000Z,1.97
2018-04-28T07:05:51.120Z,2.07
2018-04-28T07:08:18.267Z,2.20
2018-04-28T07:10:45.433Z,2.30
2018-04-28T07:13:12.576Z,2.20
2018-04-28T07:15:39.694Z,2.40
2018-04-28T07:18:06.846Z,2.80
2018-04-28T07:20:33.977Z,2.50
2018-04-28T07:23:01.133Z,2.27
2018-04-28T07:25:28.262Z,2.10
2018-04-28T07:27:55.910Z,2.70
2018-04-28T07:30:23.106Z,2.50
2018-04-28T07:32:50.256Z,2.00
2018-04-28T07:35:17.448Z,1.90
2018-04-28T07:37:44.570Z,2.67
2018-04-28T07:40:11.723Z,2.73
2018-04-28T07:42:38.849Z,2.60
2018-04-28T07:45:06.001Z,2.60
2018-04-28T07:47:33.148Z,2.37
2018-04-28T07:50:00.792Z,2.77
2018-04-28T07:52:27.954Z,1.93
2018-04-28T07:54:55.107Z,2.33
2018-04-28T07:57:22.224Z,2.40
2018-04-28T07:59:49.377Z,2.50
2018-04-28T08:02:16.510Z,1.93
2018-04-28T08:04:43.638Z,2.23
2018-04-28T08:07:10.797Z,2.63
2018-04-28T08:09:37.918Z,2.97
2018-04-28T08:12:05.079Z,2.83
2018-04-28T08:14:32.215Z,1.90
2018-04-28T08:16:59.363Z,2.97
2018-04-28T08:19:26.476Z,2.47
2018-04-28T08:21:53.626Z,2.50
2018-04-28T08:24:20.745Z,2.67
2018-04-28T08:26:47.901Z,3.20
2018-04-28T08:29:15.030Z,2.53
2018-04-28T08:31:42.193Z,2.80
2018-04-28T08:34:09.323Z,2.60
2018-04-28T08:36:36.493Z,2.60
2018-04-28T08:39:03.621Z,2.80
2018-04-28T08:41:30.746Z,2.30
2018-04-28T08:43:57.894Z,2.43
2018-04-28T08:46:25.017Z,2.50
2018-04-28T08:48:52.223Z,3.00
2018-04-28T08:51:19.400Z,2.10
2018-04-28T08:53:46.555Z,2.30
2018-04-28T08:56:13.685Z,2.60
2018-04-28T08:58:40.842Z,2.43
2018-04-28T09:01:08.220Z,2.62
2018-04-28T09:03:35.453Z,1.97
2018-04-28T09:06:02.520Z,2.30
2018-04-28T09:08:29.647Z,2.23
2018-04-28T09:10:57.001Z,2.20
2018-04-28T09:13:24.341Z,2.77
2018-04-28T09:15:51.735Z,2.53
2018-04-28T09:18:19.061Z,3.57
2018-04-28T09:20:46.436Z,5.17
2018-04-28T09:23:13.831Z,2.53
2018-04-28T09:25:41.351Z,4.03
2018-04-28T09:28:08.705Z,5.60
2018-04-28T09:30:36.196Z,5.40
2018-04-28T09:33:03.620Z,2.93
2018-04-28T09:35:30.969Z,2.60
2018-04-28T09:37:58.347Z,2.40
2018-04-28T09:40:25.699Z,3.27
2018-04-28T09:42:53.028Z,3.00
2018-04-28T09:45:20.396Z,2.53
2018-04-28T09:47:47.733Z,1.97
2018-04-28T09:50:15.074Z,3.23
2018-04-28T09:52:42.429Z,2.80
2018-04-28T09:55:09.764Z,2.37
2018-04-28T09:57:37.124Z,2.87
2018-04-28T10:00:10.389Z,3.10
2018-04-28T10:02:37.750Z,2.50
2018-04-28T10:05:05.078Z,2.20
2018-04-28T10:07:32.428Z,2.10
2018-04-28T10:09:59.759Z,2.87
2018-04-28T10:12:27.131Z,2.90
2018-04-28T10:14:54.462Z,2.20
2018-04-28T10:17:21.792Z,3.03
2018-04-28T10:19:49.157Z,3.17
2018-04-28T10:22:16.495Z,2.40
2018-04-28T10:24:43.854Z,2.47
2018-04-28T10:27:11.630Z,3.53
2018-04-28T10:29:39.002Z,2.50
2018-04-28T10:32:06.332Z,3.10
2018-04-28T10:34:33.690Z,2.70
2018-04-28T10:37:01.020Z,2.60
2018-04-28T10:39:28.391Z,2.83
2018-04-28T10:41:55.717Z,2.57
2018-04-28T10:44:23.065Z,2.30
2018-04-28T10:46:50.393Z,2.43
2018-04-28T10:49:17.727Z,3.30
2018-04-28T10:51:45.080Z,3.60
2018-04-28T10:54:12.423Z,2.47
2018-04-28T10:56:39.772Z,3.10
2018-04-28T10:59:07.112Z,2.70
2018-04-28T11:01:34.468Z,3.90
2018-04-28T11:04:01.805Z,2.57
2018-04-28T11:06:29.157Z,3.37
2018-04-28T11:08:56.539Z,3.10
2018-04-28T11:11:23.936Z,2.53
2018-04-28T11:13:51.443Z,2.40
2018-04-28T11:16:18.800Z,2.03
2018-04-28T11:18:46.129Z,2.50
2018-04-28T11:21:13.489Z,8.23
2018-04-28T11:23:40.833Z,9.27
2018-04-28T11:26:08.196Z,2.80
2018-04-28T11:28:35.512Z,2.63
2018-04-28T11:31:03.456Z,2.12
2018-04-28T11:33:30.803Z,3.90
2018-04-28T11:35:58.129Z,3.10
2018-04-28T11:38:25.552Z,3.47
2018-04-28T11:40:52.844Z,2.20
2018-04-28T11:43:20.197Z,2.30
2018-04-28T11:45:47.594Z,2.60
2018-04-28T11:50:43.316Z,3.20
2018-04-28T11:53:10.714Z,2.60
2018-04-28T11:55:38.029Z,2.30
2018-04-28T11:58:05.386Z,2.73
2018-04-28T12:00:32.734Z,2.40
2018-04-28T12:03:00.133Z,2.67
2018-04-28T12:05:27.463Z,2.87
2018-04-28T12:07:54.881Z,2.33
2018-04-28T12:10:22.214Z,1.93
2018-04-28T12:12:49.577Z,2.40
2018-04-28T12:15:16.914Z,2.60
2018-04-28T12:17:44.343Z,2.30
2018-04-28T12:20:11.676Z,3.23
2018-04-28T12:22:39.000Z,3.17
2018-04-28T12:25:06.370Z,2.50
2018-04-28T12:27:33.706Z,3.60
2018-04-28T12:30:01.092Z,3.10
2018-04-28T12:32:28.406Z,2.47
2018-04-28T12:34:55.762Z,2.97
2018-04-28T12:37:23.098Z,2.60
2018-04-28T12:39:50.455Z,3.03
2018-04-28T12:42:17.781Z,4.17
2018-04-28T12:44:45.141Z,4.73
2018-04-28T12:47:12.472Z,2.30
2018-04-28T12:49:39.864Z,3.83
2018-04-28T12:52:07.197Z,3.07
2018-04-28T12:54:34.548Z,3.70
2018-04-28T12:57:01.892Z,3.17
2018-04-28T12:59:29.250Z,2.30
2018-04-28T13:01:56.582Z,3.20
2018-04-28T13:04:23.946Z,2.67
2018-04-28T13:06:51.276Z,2.77
2018-04-28T13:09:18.634Z,2.97
2018-04-28T13:11:45.963Z,2.70
2018-04-28T13:14:13.316Z,2.57
2018-04-28T13:16:40.650Z,2.57
2018-04-28T13:19:08.078Z,3.10
2018-04-28T13:21:35.417Z,2.37
2018-04-28T13:24:02.770Z,2.80
2018-04-28T13:26:30.099Z,2.63
2018-04-28T13:28:57.457Z,3.10
2018-04-28T13:31:24.788Z,2.27
2018-04-28T13:33:52.150Z,3.00
2018-04-28T13:36:19.480Z,3.10
2018-04-28T13:38:46.842Z,2.40
2018-04-28T13:41:14.175Z,3.05
2018-04-28T13:43:41.518Z,2.97
2018-04-28T13:46:10.642Z,3.22
2018-04-28T13:48:37.973Z,2.63
2018-04-28T13:51:05.327Z,2.20
2018-04-28T13:53:32.650Z,2.20
2018-04-28T13:56:00.018Z,2.80
2018-04-28T13:58:27.375Z,2.30
2018-04-28T14:00:54.737Z,2.13
2018-04-28T14:03:22.062Z,2.63
2018-04-28T14:05:49.424Z,3.07
2018-04-28T14:08:16.748Z,2.67
2018-04-28T14:10:44.110Z,2.80
2018-04-28T14:13:11.441Z,2.43
2018-04-28T14:15:38.870Z,2.40
2018-04-28T14:18:06.164Z,2.87
2018-04-28T14:20:33.519Z,3.00
2018-04-28T14:23:00.871Z,3.20
2018-04-28T14:25:28.234Z,3.60
2018-04-28T14:27:55.641Z,3.27
2018-04-28T14:30:23.010Z,3.00
2018-04-28T14:32:50.364Z,3.37
2018-04-28T14:35:17.698Z,2.83
2018-04-28T14:37:45.048Z,5.13
2018-04-28T14:40:12.491Z,3.20
2018-04-28T14:42:39.888Z,2.20
2018-04-28T14:45:07.680Z,2.27
2018-04-28T14:47:35.513Z,2.20
2018-04-28T14:50:02.932Z,3.07
2018-04-28T14:52:30.326Z,3.23
2018-04-28T14:54:57.988Z,2.77
2018-04-28T14:57:25.352Z,2.27
2018-04-28T14:59:52.694Z,3.17
2018-04-28T15:02:20.079Z,2.93
2018-04-28T15:04:47.433Z,2.70
2018-04-28T15:07:16.180Z,2.87
2018-04-28T15:09:44.619Z,2.70
2018-04-28T15:12:12.024Z,2.83
2018-04-28T15:14:39.361Z,2.40
2018-04-28T15:17:06.724Z,2.50
2018-04-28T15:19:34.067Z,3.27
2018-04-28T15:22:01.420Z,3.53
2018-04-28T15:24:28.750Z,2.90
2018-04-28T15:26:56.115Z,3.30
2018-04-28T15:29:23.447Z,2.73
2018-04-28T15:31:50.813Z,2.50
2018-04-28T15:34:18.142Z,2.93
2018-04-28T15:36:45.479Z,3.27
2018-04-28T15:39:12.839Z,3.93
2018-04-28T15:41:40.183Z,3.40
2018-04-28T15:44:07.542Z,3.80
2018-04-28T15:46:34.888Z,3.40
2018-04-28T15:49:02.253Z,2.20
2018-04-28T15:51:29.588Z,3.10
2018-04-28T15:53:56.947Z,2.97
2018-04-28T15:56:24.289Z,2.80
2018-04-28T15:58:51.648Z,2.80
2018-04-28T16:01:19.019Z,3.10
2018-04-28T16:03:46.357Z,3.20
2018-04-28T16:06:13.703Z,4.23
2018-04-28T16:08:41.081Z,3.37
2018-04-28T16:11:08.419Z,3.70
2018-04-28T16:13:35.751Z,3.73
2018-04-28T16:16:03.110Z,3.00
2018-04-28T16:18:30.445Z,2.67
2018-04-28T16:20:57.802Z,3.20
2018-04-28T16:23:25.140Z,2.50
2018-04-28T16:25:52.488Z,2.23
2018-04-28T16:28:19.825Z,2.67
2018-04-28T16:30:47.193Z,3.60
2018-04-28T16:33:14.534Z,3.47
2018-04-28T16:35:41.898Z,3.75
2018-04-28T16:38:09.230Z,4.50
2018-04-28T16:40:36.569Z,3.30
2018-04-28T16:43:03.934Z,2.50
2018-04-28T16:45:31.298Z,2.00
2018-04-28T16:47:58.653Z,2.10
2018-04-28T16:50:25.983Z,5.13
2018-04-28T16:52:53.331Z,2.70
2018-04-28T16:55:20.658Z,2.30
2018-04-28T16:57:48.059Z,2.50
2018-04-28T17:00:15.383Z,4.07
2018-04-28T17:02:42.845Z,5.70
2018-04-28T17:05:10.185Z,6.40
2018-04-28T17:07:37.584Z,4.27
2018-04-28T17:10:04.967Z,2.57
2018-04-28T17:12:32.339Z,3.03
2018-04-28T17:14:59.668Z,2.37
2018-04-28T17:17:32.930Z,4.80
2018-04-28T17:20:00.268Z,4.27
2018-04-28T17:22:27.600Z,3.40
2018-04-28T17:24:55.014Z,2.53
2018-04-28T17:27:22.359Z,2.93
2018-04-28T17:29:49.707Z,3.00
2018-04-28T17:32:17.046Z,3.57
2018-04-28T17:34:44.404Z,3.50
2018-04-28T17:37:11.827Z,3.03
2018-04-28T17:39:39.133Z,3.20
2018-04-28T17:42:06.462Z,2.80
2018-04-28T17:44:33.833Z,3.10
2018-04-28T17:47:01.173Z,2.50
2018-04-28T17:49:28.542Z,3.43
2018-04-28T17:51:55.872Z,2.93
2018-04-28T17:54:23.204Z,2.73
2018-04-28T17:56:50.599Z,3.30
2018-04-28T17:59:17.935Z,2.90
2018-04-28T18:01:45.301Z,4.57
2018-04-28T18:04:12.631Z,2.60
2018-04-28T18:06:40.031Z,2.17
2018-04-28T18:09:07.362Z,2.67
2018-04-28T18:11:34.725Z,3.30
2018-04-28T18:14:02.076Z,2.70
2018-04-28T18:16:29.434Z,3.43
2018-04-28T18:18:56.775Z,3.93
2018-04-28T18:21:24.150Z,2.80
2018-04-28T18:23:51.479Z,3.10
2018-04-28T18:26:18.854Z,2.10
2018-04-28T18:28:46.202Z,2.67
2018-04-28T18:31:13.553Z,3.70
2018-04-28T18:33:40.932Z,6.70
2018-04-28T18:36:08.270Z,3.50
2018-04-28T18:38:35.642Z,4.50
2018-04-28T18:41:02.986Z,4.97
2018-04-28T18:43:30.356Z,4.20
2018-04-28T18:45:57.699Z,4.77
2018-04-28T18:48:25.069Z,4.87
2018-04-28T18:50:52.415Z,3.73
2018-04-28T18:53:19.775Z,4.03
2018-04-28T18:55:47.109Z,2.87
2018-04-28T18:58:14.457Z,3.70
2018-04-28T19:00:41.808Z,3.80
2018-04-28T19:03:09.161Z,3.83
2018-04-28T19:05:36.528Z,3.10
2018-04-28T19:08:03.914Z,2.77
2018-04-28T19:10:31.263Z,3.57
2018-04-28T19:12:58.623Z,3.63
2018-04-28T19:15:25.985Z,3.13
2018-04-28T19:17:53.314Z,3.13
2018-04-28T19:20:20.676Z,2.90
2018-04-28T19:22:48.020Z,3.97
2018-04-28T19:25:15.381Z,3.30
2018-04-28T19:27:42.719Z,4.27
2018-04-28T19:30:10.090Z,3.70
2018-04-28T19:32:37.421Z,3.93
2018-04-28T19:35:04.757Z,3.93
2018-04-28T19:37:32.199Z,3.50
2018-04-28T19:39:59.539Z,3.20
2018-04-28T19:42:26.898Z,3.43
2018-04-28T19:44:54.226Z,3.43
2018-04-28T19:47:21.613Z,3.33
2018-04-28T19:49:48.940Z,3.80
2018-04-28T19:52:16.300Z,4.50
2018-04-28T19:54:44.208Z,3.95
2018-04-28T19:57:11.590Z,4.10
2018-04-28T19:59:38.939Z,4.10
2018-04-28T20:02:06.309Z,5.83
2018-04-28T20:04:33.639Z,4.33
2018-04-28T20:07:01.004Z,3.63
2018-04-28T20:09:28.354Z,3.83
2018-04-28T20:11:55.686Z,4.70
2018-04-28T20:14:23.057Z,4.30
2018-04-28T20:16:50.384Z,4.10
2018-04-28T20:19:17.740Z,4.57
2018-04-28T20:21:45.077Z,5.20
2018-04-28T20:24:18.347Z,4.13
2018-04-28T20:26:45.701Z,4.83
2018-04-28T20:29:13.061Z,4.40
2018-04-28T20:31:40.392Z,4.73
2018-04-28T20:34:07.744Z,4.73
2018-04-28T20:36:35.089Z,4.43
2018-04-28T20:39:02.453Z,4.93
2018-04-28T20:41:29.859Z,5.07
2018-04-28T20:43:57.219Z,5.30
2018-04-28T20:46:24.556Z,6.03
2018-04-28T20:48:51.919Z,5.00
2018-04-28T20:51:19.254Z,5.27
2018-04-28T20:53:46.589Z,5.87
2018-04-28T20:56:13.950Z,5.20
2018-04-28T20:58:41.295Z,5.80
2018-04-28T21:01:08.651Z,3.63
2018-04-28T21:03:35.984Z,3.43
2018-04-28T21:06:03.345Z,2.73
2018-04-28T21:08:30.681Z,3.30
2018-04-28T21:10:58.038Z,3.23
2018-04-28T21:13:25.380Z,2.40
2018-04-28T21:15:52.743Z,2.53
2018-04-28T21:18:20.090Z,2.43
2018-04-28T21:20:47.470Z,2.17
2018-04-28T21:23:14.803Z,2.40
2018-04-28T21:25:42.128Z,1.87
2018-04-28T21:28:09.480Z,2.70
2018-04-28T21:30:36.815Z,2.10
2018-04-28T21:33:04.184Z,2.17
2018-04-28T21:35:31.523Z,2.63
2018-04-28T21:37:58.887Z,2.43
2018-04-28T21:40:26.216Z,1.90
2018-04-28T21:42:53.568Z,2.10
2018-04-28T21:45:20.930Z,3.30
2018-04-28T21:47:48.294Z,1.87
2018-04-28T21:50:15.625Z,1.97
2018-04-28T21:52:42.989Z,3.47
2018-04-28T21:55:10.319Z,1.40
2018-04-28T21:57:37.658Z,1.80
2018-04-28T22:00:05.010Z,1.40
2018-04-28T22:02:32.349Z,1.60
2018-04-28T22:04:59.744Z,2.13
2018-04-28T22:07:27.092Z,2.40
2018-04-28T22:09:54.458Z,2.10
2018-04-28T22:12:21.809Z,1.87
2018-04-28T22:14:49.168Z,2.20
2018-04-28T22:17:16.500Z,1.80
2018-04-28T22:19:44.369Z,1.87
2018-04-28T22:22:11.785Z,2.27
2018-04-28T22:24:39.141Z,1.90
2018-04-28T22:27:06.480Z,2.60
2018-04-28T22:29:33.837Z,2.13
2018-04-28T22:32:01.176Z,1.70
2018-04-28T22:34:28.513Z,1.57
2018-04-28T22:36:55.881Z,2.63
2018-04-28T22:39:23.218Z,1.60
2018-04-28T22:41:50.577Z,2.30
2018-04-28T22:44:17.905Z,2.30
2018-04-28T22:46:45.270Z,2.10
2018-04-28T22:49:12.608Z,1.90
2018-04-28T22:51:40.083Z,2.20
2018-04-28T22:54:07.415Z,1.90
2018-04-28T22:56:34.776Z,2.37
2018-04-28T22:59:02.125Z,2.23
2018-04-28T23:01:29.495Z,3.67
2018-04-28T23:03:56.826Z,2.80
2018-04-28T23:06:24.158Z,2.37
2018-04-28T23:08:51.514Z,2.30
2018-04-28T23:11:18.841Z,3.30
2018-04-28T23:13:46.199Z,2.73
2018-04-28T23:16:13.565Z,3.27
2018-04-28T23:18:40.921Z,2.60
2018-04-28T23:21:08.258Z,2.77
2018-04-28T23:23:35.626Z,3.10
2018-04-28T23:26:02.964Z,3.07
2018-04-28T23:28:30.324Z,2.70
2018-04-28T23:30:57.665Z,2.50
2018-04-28T23:33:25.022Z,3.00
2018-04-28T23:35:52.386Z,3.17
2018-04-28T23:38:19.747Z,2.83
2018-04-28T23:40:47.080Z,2.70
2018-04-28T23:43:14.443Z,5.00
2018-04-28T23:45:41.785Z,3.50
2018-04-28T23:48:09.118Z,2.73
2018-04-28T23:50:36.484Z,3.00
2018-04-28T23:53:03.822Z,3.70
2018-04-28T23:55:31.183Z,3.37
2018-04-28T23:57:58.535Z,3.17
